Time;durP1;ratioP1;P1;durP2;ratioP2;P2;SDS_P1;SDS_P2;PMS_P1;PMS_P2;Temp;Humidity;BMP_temperature;BMP_pressure;BME280_temperature;BME280_humidity;BME280_pressure;Samples;Min_cycle;Max_cycle;Signal;HPM_P1;HPM_P2
2023/05/01 04:01:45;;;;;;;3.70;2.50;;;14.60;68.60;;;;;;5451162;23;20497;-74
2023/05/01 04:04:12;;;;;;;2.90;2.60;;;14.60;68.70;;;;;;4974132;28;20867;-74
2023/05/01 04:06:39;;;;;;;3.20;2.83;;;14.60;68.90;;;;;;4974049;28;20453;-74
2023/05/01 04:09:07;;;;;;;2.93;2.70;;;14.60;68.90;;;;;;4973964;28;20521;-74
2023/05/01 04:11:33;;;;;;;3.20;2.90;;;14.60;68.90;;;;;;4974017;28;20474;-74
2023/05/01 04:14:00;;;;;;;2.93;2.63;;;14.70;68.90;;;;;;4973721;28;20944;-74
2023/05/01 04:16:27;;;;;;;3.13;2.83;;;14.70;68.70;;;;;;4974614;28;20446;-74
2023/05/01 04:18:55;;;;;;;3.20;2.90;;;14.60;69.10;;;;;;4973984;28;20446;-74
2023/05/01 04:21:21;;;;;;;3.27;2.97;;;14.70;69.00;;;;;;4973923;28;20520;-74
2023/05/01 04:23:48;;;;;;;2.97;2.67;;;14.70;68.80;;;;;;4976808;28;20866;-75
2023/05/01 04:26:15;;;;;;;3.23;2.93;;;14.70;69.00;;;;;;4977391;28;20450;-75
2023/05/01 04:28:42;;;;;;;3.80;2.33;;;14.70;69.20;;;;;;4976921;28;20525;-75
2023/05/01 04:31:08;;;;;;;3.47;2.37;;;14.70;69.30;;;;;;4976984;28;20998;-74
2023/05/01 04:33:35;;;;;;;3.50;2.47;;;14.70;69.10;;;;;;4977167;28;20486;-75
2023/05/01 04:36:03;;;;;;;2.80;2.47;;;14.70;69.20;;;;;;4977212;28;20505;-74
2023/05/01 04:38:30;;;;;;;2.50;2.30;;;14.70;69.30;;;;;;4976849;28;20863;-76
2023/05/01 04:40:57;;;;;;;3.03;2.30;;;14.70;69.30;;;;;;4976756;28;20848;-74
2023/05/01 04:43:24;;;;;;;2.40;2.20;;;14.70;69.50;;;;;;4977371;28;20450;-75
2023/05/01 04:45:50;;;;;;;3.20;2.90;;;14.70;69.40;;;;;;4977013;28;20501;-75
2023/05/01 04:48:17;;;;;;;2.97;2.67;;;14.70;68.80;;;;;;4976890;28;20485;-74
2023/05/01 04:50:44;;;;;;;3.10;2.80;;;14.70;69.10;;;;;;4976871;28;20462;-75
2023/05/01 04:53:12;;;;;;;3.00;2.70;;;14.70;69.70;;;;;;4976934;28;20450;-75
2023/05/01 04:55:39;;;;;;;3.40;3.10;;;14.70;69.70;;;;;;4976812;28;20454;-75
2023/05/01 04:58:05;;;;;;;2.80;2.30;;;14.70;69.70;;;;;;4976775;28;20458;-75
2023/05/01 05:00:32;;;;;;;3.10;2.70;;;14.70;69.50;;;;;;4976541;28;20801;-75
2023/05/01 05:02:59;;;;;;;2.90;2.60;;;14.70;69.30;;;;;;4976666;28;20482;-75
2023/05/01 05:05:26;;;;;;;2.77;2.37;;;14.70;69.60;;;;;;4976652;28;20567;-74
2023/05/01 05:07:52;;;;;;;2.67;2.47;;;14.70;69.80;;;;;;4976537;28;20486;-74
2023/05/01 05:10:20;;;;;;;2.93;2.60;;;14.70;69.80;;;;;;4976580;28;20451;-75
2023/05/01 05:12:47;;;;;;;2.80;2.50;;;14.70;69.70;;;;;;4976518;28;20453;-75
2023/05/01 05:15:15;;;;;;;3.00;2.53;;;14.80;70.00;;;;;;4976505;28;20454;-75
2023/05/01 05:17:42;;;;;;;2.83;2.47;;;14.80;70.40;;;;;;4976671;28;20456;-74
2023/05/01 05:20:09;;;;;;;2.90;2.50;;;14.80;69.60;;;;;;4976410;28;20513;-74
2023/05/01 05:22:36;;;;;;;4.10;3.70;;;14.80;69.60;;;;;;4976613;28;20466;-74
2023/05/01 05:25:05;;;;;;;4.20;2.23;;;14.80;69.20;;;;;;4975996;28;21027;-75
2023/05/01 05:27:36;;;;;;;2.50;2.07;;;14.70;68.90;;;;;;4976222;28;20454;-74
2023/05/01 05:30:04;;;;;;;2.90;2.60;;;14.70;68.50;;;;;;4976421;28;20454;-74
2023/05/01 05:32:31;;;;;;;2.80;2.60;;;14.70;69.60;;;;;;4975786;28;20984;-75
2023/05/01 05:34:58;;;;;;;2.67;2.47;;;14.70;70.40;;;;;;4975042;28;20450;-74
2023/05/01 05:37:25;;;;;;;2.70;2.50;;;14.70;70.30;;;;;;4976110;28;20506;-74
2023/05/01 05:39:51;;;;;;;2.90;2.63;;;14.70;70.50;;;;;;4976050;28;20898;-74
2023/05/01 05:42:18;;;;;;;2.77;2.57;;;14.60;70.50;;;;;;4975660;28;21050;-74
2023/05/01 05:44:46;;;;;;;2.70;2.37;;;14.50;70.50;;;;;;4975655;28;20940;-75
2023/05/01 05:47:13;;;;;;;2.30;2.10;;;14.40;70.70;;;;;;4975596;28;20971;-74
2023/05/01 05:49:39;;;;;;;2.90;2.47;;;14.30;71.20;;;;;;4975724;28;20486;-74
2023/05/01 05:52:06;;;;;;;2.20;1.87;;;14.30;71.00;;;;;;4975704;28;20975;-74
2023/05/01 05:54:33;;;;;;;3.03;2.33;;;14.30;71.20;;;;;;4975761;28;20505;-74
2023/05/01 05:57:00;;;;;;;2.90;2.43;;;14.30;71.30;;;;;;4975859;28;20454;-74
2023/05/01 05:59:26;;;;;;;2.40;2.00;;;14.20;71.00;;;;;;4975670;28;20453;-74
2023/05/01 06:01:54;;;;;;;3.00;2.40;;;14.30;71.30;;;;;;4975454;28;20905;-73
2023/05/01 06:04:21;;;;;;;3.13;2.67;;;14.30;70.90;;;;;;4975609;28;20856;-75
2023/05/01 06:06:48;;;;;;;2.70;2.50;;;14.30;71.00;;;;;;4975299;28;20454;-75
2023/05/01 06:09:17;;;;;;;2.30;1.97;;;14.20;70.50;;;;;;4975086;28;20898;-75
2023/05/01 06:11:44;;;;;;;2.30;2.00;;;14.30;71.10;;;;;;4975354;28;20478;-74
2023/05/01 06:14:11;;;;;;;2.50;2.30;;;14.30;71.20;;;;;;4975433;28;20509;-75
2023/05/01 06:16:38;;;;;;;2.40;2.13;;;14.30;71.60;;;;;;4975354;28;20457;-74
2023/05/01 06:19:06;;;;;;;2.50;2.30;;;14.30;70.70;;;;;;4975285;28;20438;-74
2023/05/01 06:21:33;;;;;;;2.80;2.60;;;14.20;70.60;;;;;;4975262;28;20565;-74
2023/05/01 06:24:00;;;;;;;3.40;2.47;;;14.00;71.40;;;;;;4975230;28;20501;-74
2023/05/01 06:26:27;;;;;;;2.67;2.47;;;13.70;72.80;;;;;;4975190;28;20481;-74
2023/05/01 06:28:54;;;;;;;2.97;2.67;;;13.80;72.80;;;;;;4975037;28;20576;-73
2023/05/01 06:31:21;;;;;;;2.70;2.40;;;13.70;72.30;;;;;;4975586;28;20469;-74
2023/05/01 06:33:48;;;;;;;2.77;2.30;;;13.60;72.60;;;;;;4975042;28;20458;-74
2023/05/01 06:36:15;;;;;;;2.33;2.13;;;13.60;73.00;;;;;;4975772;28;20446;-74
2023/05/01 06:38:47;;;;;;;2.50;1.90;;;13.80;73.00;;;;;;4974640;28;21000;-74
2023/05/01 06:41:14;;;;;;;2.90;2.60;;;13.90;71.40;;;;;;4974960;28;20479;-74
2023/05/01 06:43:40;;;;;;;2.87;2.57;;;13.80;72.60;;;;;;4975011;28;20449;-74
2023/05/01 06:46:07;;;;;;;2.43;2.13;;;13.60;72.30;;;;;;4974517;28;20497;-75
2023/05/01 06:48:34;;;;;;;3.33;2.40;;;13.50;73.20;;;;;;4974483;28;20524;-74
2023/05/01 06:51:00;;;;;;;3.67;2.63;;;13.70;73.00;;;;;;4974465;28;20983;-74
2023/05/01 06:53:28;;;;;;;2.80;2.50;;;13.60;72.90;;;;;;4974747;28;20454;-75
2023/05/01 06:55:55;;;;;;;2.40;1.97;;;13.70;72.70;;;;;;4974777;28;20505;-74
2023/05/01 06:58:22;;;;;;;2.47;2.27;;;13.90;72.60;;;;;;4974823;28;20446;-74
2023/05/01 07:00:48;;;;;;;3.13;2.83;;;14.00;72.40;;;;;;4974613;28;20838;-73
2023/05/01 07:03:15;;;;;;;2.63;2.40;;;13.80;72.40;;;;;;4974376;28;20931;-74
2023/05/01 07:05:42;;;;;;;2.50;2.27;;;13.80;72.20;;;;;;4975157;28;20447;-75
2023/05/01 07:08:09;;;;;;;2.70;2.50;;;13.80;73.00;;;;;;4974260;28;20962;-74
2023/05/01 07:10:37;;;;;;;2.53;2.30;;;13.60;73.80;;;;;;4974234;28;20971;-75
2023/05/01 07:13:04;;;;;;;3.10;2.80;;;13.70;74.50;;;;;;4974580;28;20514;-74
2023/05/01 07:15:30;;;;;;;2.73;2.20;;;14.00;73.60;;;;;;4974589;28;20450;-74
2023/05/01 07:17:57;;;;;;;2.97;2.67;;;14.10;73.20;;;;;;4974563;28;20529;-74
2023/05/01 07:20:24;;;;;;;2.47;2.17;;;14.00;73.70;;;;;;4974343;28;20861;-75
2023/05/01 07:22:50;;;;;;;2.50;2.20;;;13.90;73.90;;;;;;4974532;28;20451;-74
2023/05/01 07:25:17;;;;;;;2.70;2.40;;;13.80;75.10;;;;;;4974473;28;20458;-74
2023/05/01 07:27:45;;;;;;;3.03;2.77;;;13.80;76.00;;;;;;4974131;28;20454;-75
2023/05/01 07:30:12;;;;;;;3.00;2.70;;;14.00;75.40;;;;;;4974319;28;20904;-74
2023/05/01 07:32:39;;;;;;;2.80;2.50;;;14.00;75.80;;;;;;4974353;28;20474;-75
2023/05/01 07:35:06;;;;;;;3.00;2.70;;;14.00;75.30;;;;;;4974368;28;20450;-74
2023/05/01 07:37:33;;;;;;;2.27;2.07;;;14.00;74.80;;;;;;4974478;28;20480;-74
2023/05/01 07:40:00;;;;;;;2.63;2.43;;;13.80;75.40;;;;;;4974312;28;20438;-74
2023/05/01 07:42:27;;;;;;;3.90;2.43;;;14.00;74.90;;;;;;4974255;28;20520;-74
2023/05/01 07:44:55;;;;;;;2.40;2.20;;;13.60;75.90;;;;;;4974315;28;20458;-74
2023/05/01 07:47:23;;;;;;;3.07;2.77;;;13.80;76.30;;;;;;4973974;28;21010;-74
2023/05/01 07:49:49;;;;;;;3.17;2.23;;;14.00;74.60;;;;;;4973930;28;20486;-73
2023/05/01 07:52:16;;;;;;;2.77;2.40;;;14.10;74.20;;;;;;4974253;28;20471;-75
2023/05/01 07:54:43;;;;;;;3.40;2.47;;;14.10;74.30;;;;;;4974194;28;20450;-74
2023/05/01 07:57:09;;;;;;;2.83;2.33;;;14.20;74.70;;;;;;4975316;28;20453;-74
2023/05/01 07:59:36;;;;;;;2.30;2.10;;;14.50;74.40;;;;;;4978052;28;20442;-75
2023/05/01 08:02:04;;;;;;;2.77;2.47;;;14.70;73.70;;;;;;4977457;28;20518;-75
2023/05/01 08:04:31;;;;;;;3.10;2.63;;;14.80;73.30;;;;;;4977562;28;20493;-75
2023/05/01 08:06:57;;;;;;;3.27;2.60;;;14.90;73.00;;;;;;4977830;28;20454;-75
2023/05/01 08:09:24;;;;;;;2.90;2.50;;;14.70;73.00;;;;;;4977632;28;20482;-75
2023/05/01 08:11:51;;;;;;;3.27;2.50;;;14.50;73.40;;;;;;4977610;28;20469;-74
2023/05/01 08:14:18;;;;;;;3.00;2.70;;;14.60;73.40;;;;;;4977680;28;20500;-75
2023/05/01 08:16:44;;;;;;;2.90;2.70;;;14.50;74.00;;;;;;4977578;28;20465;-75
2023/05/01 08:19:12;;;;;;;2.60;2.40;;;14.60;73.80;;;;;;4979202;28;20504;-75
2023/05/01 08:21:39;;;;;;;2.67;2.37;;;14.70;74.90;;;;;;4977128;28;20893;-75
2023/05/01 08:24:10;;;;;;;2.93;2.17;;;14.90;74.70;;;;;;4977529;28;20481;-75
2023/05/01 08:26:37;;;;;;;3.30;2.50;;;14.80;73.60;;;;;;4977481;28;20517;-75
2023/05/01 08:29:03;;;;;;;3.33;2.97;;;14.60;74.90;;;;;;4977357;28;20548;-75
2023/05/01 08:31:30;;;;;;;2.50;2.30;;;14.90;75.50;;;;;;4976982;28;20818;-75
2023/05/01 08:33:57;;;;;;;3.07;2.80;;;15.10;75.30;;;;;;4977208;28;20450;-75
2023/05/01 08:36:26;;;;;;;3.53;2.40;;;15.30;73.50;;;;;;4977191;28;20458;-75
2023/05/01 08:38:52;;;;;;;3.03;2.10;;;15.20;74.40;;;;;;4977194;28;20458;-75
2023/05/01 08:41:21;;;;;;;2.67;2.10;;;15.60;72.50;;;;;;4977045;28;20568;-75
2023/05/01 08:43:48;;;;;;;2.67;2.43;;;15.70;71.40;;;;;;4977092;28;20453;-73
2023/05/01 08:46:20;;;;;;;3.20;2.23;;;15.90;72.80;;;;;;4977159;28;20460;-75
2023/05/01 08:48:48;;;;;;;4.50;2.70;;;16.20;72.10;;;;;;4977326;28;20569;-76
2023/05/01 08:51:16;;;;;;;2.60;2.40;;;16.30;70.80;;;;;;4977269;28;20516;-74
2023/05/01 08:53:46;;;;;;;2.70;2.20;;;16.40;71.00;;;;;;4977166;28;20575;-75
2023/05/01 08:56:14;;;;;;;2.80;2.53;;;16.20;70.40;;;;;;4977012;28;20836;-74
2023/05/01 08:58:44;;;;;;;2.53;2.20;;;16.10;70.40;;;;;;4977180;28;20453;-75
2023/05/01 09:01:14;;;;;;;2.60;2.40;;;15.90;70.90;;;;;;4976519;28;20865;-75
2023/05/01 09:03:43;;;;;;;2.90;2.47;;;15.70;72.20;;;;;;4976796;28;20486;-73
2023/05/01 09:06:10;;;;;;;3.37;3.07;;;15.90;71.00;;;;;;4976921;28;20557;-75
2023/05/01 09:08:37;;;;;;;2.60;2.37;;;15.70;72.10;;;;;;4976317;28;20528;-76
2023/05/01 09:11:05;;;;;;;2.23;1.93;;;15.80;72.50;;;;;;4976528;28;20470;-75
2023/05/01 09:13:33;;;;;;;2.50;2.13;;;15.90;72.60;;;;;;4976542;28;20553;-75
2023/05/01 09:16:00;;;;;;;2.60;2.10;;;16.00;71.10;;;;;;4976530;28;20450;-76
2023/05/01 09:18:27;;;;;;;2.50;2.27;;;16.10;70.40;;;;;;4976912;28;20493;-73
2023/05/01 09:20:54;;;;;;;2.13;1.83;;;16.40;70.50;;;;;;4976588;28;21002;-75
2023/05/01 09:23:21;;;;;;;2.20;2.00;;;16.50;69.40;;;;;;4976486;28;20545;-76
2023/05/01 09:25:48;;;;;;;2.17;1.77;;;16.50;69.40;;;;;;4976060;28;20818;-75
2023/05/01 09:28:16;;;;;;;2.90;2.20;;;16.50;71.50;;;;;;4976281;28;20458;-75
2023/05/01 09:30:43;;;;;;;2.70;2.50;;;16.50;70.10;;;;;;4976394;28;20573;-74
2023/05/01 09:33:11;;;;;;;2.50;2.27;;;16.60;70.50;;;;;;4976237;28;20482;-74
2023/05/01 09:35:52;;;;;;;2.03;1.77;;;16.40;69.40;;;;;;4976009;28;20435;-75
2023/05/01 09:38:20;;;;;;;2.40;2.13;;;16.70;69.60;;;;;;4976307;28;20509;-76
2023/05/01 09:40:47;;;;;;;2.83;2.53;;;17.20;68.90;;;;;;4976204;28;20466;-75
2023/05/01 09:43:23;;;;;;;2.50;2.20;;;17.10;66.90;;;;;;4976089;28;20484;-75
2023/05/01 09:46:02;;;;;;;3.87;2.30;;;16.70;68.10;;;;;;4976172;28;20493;-75
2023/05/01 09:48:29;;;;;;;2.30;2.00;;;16.90;68.90;;;;;;4976087;28;20446;-75
2023/05/01 09:50:56;;;;;;;4.20;2.07;;;16.90;68.80;;;;;;4975776;28;20512;-75
2023/05/01 09:53:36;;;;;;;2.17;1.80;;;17.20;67.10;;;;;;4975984;28;20473;-76
2023/05/01 09:56:03;;;;;;;2.00;1.50;;;17.60;66.10;;;;;;4976142;28;20489;-74
2023/05/01 09:58:31;;;;;;;2.33;1.70;;;17.90;63.30;;;;;;4975983;28;20454;-75
2023/05/01 10:00:59;;;;;;;3.03;1.70;;;18.30;63.20;;;;;;4975623;28;20545;-74
2023/05/01 10:03:25;;;;;;;2.10;1.50;;;18.50;61.50;;;;;;4976043;28;20434;-75
2023/05/01 10:05:55;;;;;;;2.27;1.73;;;18.60;59.30;;;;;;4975786;28;20446;-74
2023/05/01 10:08:22;;;;;;;2.20;1.70;;;18.70;60.20;;;;;;4975654;28;20853;-76
2023/05/01 10:11:01;;;;;;;2.03;1.77;;;18.70;58.80;;;;;;4975596;28;20532;-73
2023/05/01 10:13:28;;;;;;;1.97;1.67;;;18.80;58.10;;;;;;4975875;28;20473;-75
2023/05/01 10:15:56;;;;;;;2.03;1.53;;;18.90;57.80;;;;;;4976335;28;20493;-74
2023/05/01 10:18:24;;;;;;;2.93;1.80;;;18.80;58.40;;;;;;4975702;28;20458;-74
2023/05/01 10:20:51;;;;;;;2.60;1.60;;;18.70;57.30;;;;;;4974778;28;20471;-75
2023/05/01 10:23:18;;;;;;;4.73;3.07;;;18.40;59.70;;;;;;4975410;28;20553;-73
2023/05/01 10:25:47;;;;;;;2.00;1.50;;;18.70;60.60;;;;;;4975293;28;20524;-75
2023/05/01 10:28:14;;;;;;;2.20;1.63;;;18.70;58.60;;;;;;4975232;28;20454;-75
2023/05/01 10:30:42;;;;;;;2.70;1.73;;;18.80;59.20;;;;;;4975020;28;20493;-75
2023/05/01 10:33:13;;;;;;;2.00;1.77;;;18.80;60.30;;;;;;4975359;28;20454;-73
2023/05/01 10:35:42;;;;;;;2.50;2.30;;;19.10;59.40;;;;;;4975246;28;20469;-73
2023/05/01 10:38:14;;;;;;;2.47;2.03;;;19.10;58.00;;;;;;4975789;28;20501;-74
2023/05/01 10:40:45;;;;;;;2.10;1.60;;;19.20;59.20;;;;;;4974985;28;20610;-74
2023/05/01 10:43:17;;;;;;;2.50;1.83;;;18.90;60.00;;;;;;4975074;28;20874;-74
2023/05/01 10:45:44;;;;;;;2.00;1.80;;;18.90;60.40;;;;;;4974975;28;20449;-75
2023/05/01 10:48:13;;;;;;;2.60;1.80;;;18.80;59.70;;;;;;4974601;28;20948;-75
2023/05/01 10:51:10;;;;;;;2.80;1.50;;;19.10;59.60;;;;;;4974406;28;20884;-76
2023/05/01 10:53:37;;;;;;;2.73;2.03;;;19.10;59.00;;;;;;4974780;28;20521;-76
2023/05/01 10:56:05;;;;;;;2.20;1.90;;;19.10;58.90;;;;;;4974748;28;20509;-78
2023/05/01 10:58:54;;;;;;;2.10;1.50;;;19.20;58.80;;;;;;4975097;28;20541;-76
2023/05/01 11:01:32;;;;;;;1.93;1.70;;;19.30;59.70;;;;;;4974399;28;20485;-73
2023/05/01 11:04:02;;;;;;;2.47;2.27;;;19.40;59.10;;;;;;4975596;28;20446;-73
2023/05/01 11:06:29;;;;;;;3.03;2.73;;;19.10;61.10;;;;;;4975978;28;20430;-74
2023/05/01 11:08:57;;;;;;;2.67;2.47;;;18.90;62.30;;;;;;4975680;28;20446;-75
2023/05/01 11:11:48;;;;;;;3.40;2.23;;;18.80;63.30;;;;;;4974667;28;20857;-75
2023/05/01 11:14:14;;;;;;;2.40;2.13;;;18.80;62.00;;;;;;4974478;28;20450;-74
2023/05/01 11:16:42;;;;;;;2.20;2.00;;;18.70;62.00;;;;;;4974492;28;20450;-74
2023/05/01 11:19:11;;;;;;;2.80;2.50;;;18.60;62.30;;;;;;4974501;28;20453;-74
2023/05/01 11:21:40;;;;;;;2.60;2.20;;;18.20;64.10;;;;;;4974319;28;20470;-74
2023/05/01 11:24:07;;;;;;;2.57;2.10;;;18.00;64.30;;;;;;4974396;28;20454;-74
2023/05/01 11:26:38;;;;;;;2.60;2.40;;;18.00;64.80;;;;;;4974427;28;20509;-74
2023/05/01 11:29:06;;;;;;;2.43;2.17;;;18.00;64.30;;;;;;4974713;28;20425;-74
2023/05/01 11:31:33;;;;;;;3.80;1.80;;;18.20;64.60;;;;;;4975478;28;20490;-74
2023/05/01 11:34:00;;;;;;;3.17;2.70;;;18.10;64.50;;;;;;4978392;28;20500;-74
2023/05/01 11:36:30;;;;;;;2.40;2.13;;;18.20;64.50;;;;;;4978302;28;20884;-74
2023/05/01 11:38:58;;;;;;;3.30;3.00;;;18.20;64.90;;;;;;4978164;28;20438;-74
2023/05/01 11:41:26;;;;;;;2.80;2.60;;;17.90;65.00;;;;;;4978060;28;20557;-74
2023/05/01 11:43:55;;;;;;;3.17;2.87;;;17.90;65.40;;;;;;4977885;28;20927;-74
2023/05/01 11:46:26;;;;;;;3.60;3.30;;;17.60;66.20;;;;;;4978270;28;20449;-76
2023/05/01 11:48:53;;;;;;;3.30;3.00;;;17.20;66.50;;;;;;4977902;28;20932;-76
2023/05/01 11:51:20;;;;;;;3.63;2.70;;;17.40;66.50;;;;;;4977976;28;20544;-74
2023/05/01 11:54:04;;;;;;;3.20;2.83;;;17.50;66.60;;;;;;4978155;28;20450;-74
2023/05/01 11:56:31;;;;;;;2.73;2.53;;;17.70;66.40;;;;;;4976715;28;20462;-74
2023/05/01 11:59:00;;;;;;;3.80;2.80;;;17.70;66.10;;;;;;4977845;28;20489;-74
2023/05/01 12:01:34;;;;;;;2.50;2.20;;;17.70;66.50;;;;;;4977858;28;20478;-74
2023/05/01 12:04:01;;;;;;;3.70;3.13;;;17.80;67.40;;;;;;4977912;28;20525;-74
2023/05/01 12:06:39;;;;;;;4.40;3.13;;;17.70;67.40;;;;;;4977602;28;20914;-75
2023/05/01 12:09:07;;;;;;;3.20;2.90;;;17.70;68.80;;;;;;4977868;28;20489;-72
2023/05/01 12:11:35;;;;;;;3.20;2.90;;;17.80;70.10;;;;;;4977725;28;20548;-74
2023/05/01 12:14:02;;;;;;;3.03;2.73;;;17.90;70.50;;;;;;4977651;28;20486;-74
2023/05/01 12:16:30;;;;;;;3.80;3.23;;;17.80;69.70;;;;;;4977494;28;20497;-74
2023/05/01 12:18:56;;;;;;;3.30;3.00;;;17.80;68.50;;;;;;4977582;28;20446;-74
2023/05/01 12:21:24;;;;;;;3.60;3.30;;;17.80;69.10;;;;;;4977341;28;20463;-73
2023/05/01 12:23:51;;;;;;;3.50;3.20;;;17.50;70.00;;;;;;4977377;28;20465;-74
2023/05/01 12:26:22;;;;;;;2.70;2.50;;;17.40;71.40;;;;;;4977030;28;20979;-74
2023/05/01 12:29:00;;;;;;;3.43;2.90;;;16.90;74.20;;;;;;4977357;28;20439;-75
2023/05/01 12:31:27;;;;;;;5.23;3.00;;;17.30;73.40;;;;;;4977205;28;20548;-73
2023/05/01 12:33:56;;;;;;;3.30;3.00;;;17.10;70.90;;;;;;4977218;28;20453;-73
2023/05/01 12:36:26;;;;;;;3.03;2.73;;;17.30;70.90;;;;;;4977208;28;20455;-73
2023/05/01 12:39:01;;;;;;;2.93;2.70;;;17.30;71.50;;;;;;4977464;28;20456;-73
2023/05/01 12:41:36;;;;;;;3.00;2.70;;;17.10;73.60;;;;;;4977586;28;20466;-73
2023/05/01 12:44:14;;;;;;;3.37;3.07;;;17.10;72.00;;;;;;4976125;28;20810;-73
2023/05/01 12:46:41;;;;;;;3.70;3.40;;;17.40;72.10;;;;;;4976767;28;20983;-74
2023/05/01 12:49:08;;;;;;;3.70;3.40;;;17.50;70.30;;;;;;4976931;28;20956;-74
2023/05/01 12:51:35;;;;;;;3.87;3.50;;;17.50;70.60;;;;;;4976856;28;20548;-73
2023/05/01 12:54:01;;;;;;;3.63;3.33;;;17.50;71.10;;;;;;4977061;28;21007;-72
2023/05/01 12:56:29;;;;;;;3.83;3.53;;;17.30;70.00;;;;;;4976911;28;20450;-74
2023/05/01 12:58:57;;;;;;;4.50;4.10;;;17.20;71.50;;;;;;4976572;28;20995;-75
2023/05/01 13:01:25;;;;;;;3.80;3.50;;;17.30;71.50;;;;;;4976497;28;21069;-73
2023/05/01 13:03:53;;;;;;;3.90;3.60;;;17.50;71.00;;;;;;4976484;28;20451;-73
2023/05/01 13:06:20;;;;;;;3.97;3.57;;;17.60;71.80;;;;;;4976875;28;20462;-73
2023/05/01 13:08:46;;;;;;;3.50;3.20;;;17.70;71.30;;;;;;4976642;28;20940;-72
2023/05/01 13:11:15;;;;;;;3.73;3.43;;;17.70;71.60;;;;;;4976582;28;20544;-73
2023/05/01 13:13:43;;;;;;;4.03;3.67;;;17.60;72.40;;;;;;4976461;28;20446;-73
2023/05/01 13:16:13;;;;;;;4.23;3.83;;;17.70;73.10;;;;;;4976670;28;20451;-73
2023/05/01 13:18:44;;;;;;;4.13;3.73;;;17.70;73.60;;;;;;4976566;28;20458;-73
2023/05/01 13:21:13;;;;;;;3.77;3.47;;;17.50;73.80;;;;;;4976364;28;20541;-72
2023/05/01 13:23:41;;;;;;;4.23;3.93;;;17.30;73.60;;;;;;4976342;28;20514;-74
2023/05/01 13:26:09;;;;;;;4.57;4.20;;;16.80;74.40;;;;;;4976289;28;20465;-74
2023/05/01 13:28:41;;;;;;;4.50;4.10;;;16.50;75.50;;;;;;4976368;28;20872;-71
2023/05/01 13:31:15;;;;;;;4.93;4.53;;;16.60;76.70;;;;;;4976267;28;20523;-75
2023/05/01 13:33:42;;;;;;;4.00;3.70;;;16.50;77.80;;;;;;4976409;28;20434;-75
2023/05/01 13:36:10;;;;;;;4.00;3.60;;;16.60;78.20;;;;;;4975922;28;20876;-75
2023/05/01 13:38:44;;;;;;;4.60;4.30;;;16.70;78.00;;;;;;4976051;28;20481;-75
2023/05/01 13:41:14;;;;;;;4.70;4.30;;;16.80;77.80;;;;;;4975986;28;20529;-74
2023/05/01 13:43:41;;;;;;;4.67;4.37;;;16.80;78.20;;;;;;4976042;28;20489;-74
2023/05/01 13:46:09;;;;;;;4.53;4.13;;;16.80;78.60;;;;;;4975962;28;20545;-75
2023/05/01 13:48:38;;;;;;;4.70;4.30;;;16.70;78.90;;;;;;4975948;28;20450;-75
2023/05/01 13:51:05;;;;;;;5.10;4.60;;;16.80;79.00;;;;;;4975744;28;20490;-74
2023/05/01 13:53:32;;;;;;;5.50;5.00;;;16.80;79.30;;;;;;4976233;28;20541;-76
2023/05/01 13:55:58;;;;;;;4.60;4.20;;;16.80;79.60;;;;;;4974953;28;20450;-74
2023/05/01 13:58:28;;;;;;;4.70;4.40;;;16.60;79.90;;;;;;4975916;28;20505;-74
2023/05/01 14:00:55;;;;;;;5.67;5.07;;;16.60;80.10;;;;;;4975310;28;20956;-73
2023/05/01 14:03:22;;;;;;;5.60;4.70;;;16.30;80.80;;;;;;4975915;28;20439;-75
2023/05/01 14:05:50;;;;;;;5.40;5.00;;;16.30;81.50;;;;;;4975809;28;20453;-76
2023/05/01 14:08:20;;;;;;;5.03;4.63;;;16.50;81.40;;;;;;4975498;28;20450;-76
2023/05/01 14:10:47;;;;;;;4.93;4.53;;;16.50;81.40;;;;;;4975180;28;20969;-77
2023/05/01 14:13:17;;;;;;;4.83;4.43;;;16.50;81.50;;;;;;4975608;28;21002;-78
2023/05/01 14:15:52;;;;;;;5.03;4.63;;;16.70;81.10;;;;;;5091656;27;20519;-75
2023/05/01 14:18:20;;;;;;;6.00;3.93;;;17.00;80.30;;;;;;5090934;28;20449;-75
2023/05/01 14:20:47;;;;;;;4.57;4.17;;;16.90;80.20;;;;;;5090487;28;20966;-74
2023/05/01 14:23:15;;;;;;;5.20;4.70;;;16.60;79.70;;;;;;5090845;28;20445;-74
2023/05/01 14:25:45;;;;;;;4.80;4.40;;;16.50;81.40;;;;;;5090492;28;21059;-74
2023/05/01 14:28:12;;;;;;;4.67;4.27;;;16.70;79.80;;;;;;5091854;28;20471;-74
2023/05/01 14:30:40;;;;;;;4.83;4.43;;;16.80;80.00;;;;;;5090694;28;20449;-74
2023/05/01 14:33:10;;;;;;;4.87;4.47;;;16.90;79.90;;;;;;5090780;28;20449;-74
2023/05/01 14:35:37;;;;;;;4.77;4.40;;;17.20;78.40;;;;;;5090686;28;20480;-75
2023/05/01 14:38:09;;;;;;;5.30;4.90;;;17.30;80.10;;;;;;5090268;28;20449;-74
2023/05/01 14:40:36;;;;;;;5.33;4.93;;;17.30;79.30;;;;;;5090406;28;20437;-74
2023/05/01 14:43:03;;;;;;;5.10;4.70;;;17.40;77.20;;;;;;5090186;28;20499;-74
2023/05/01 14:45:30;;;;;;;4.00;3.70;;;17.40;77.40;;;;;;5090072;28;20934;-74
2023/05/01 14:47:57;;;;;;;4.57;4.20;;;17.20;77.30;;;;;;5090302;28;20441;-73
2023/05/01 14:50:25;;;;;;;4.00;3.70;;;16.70;77.10;;;;;;5090272;28;20453;-75
2023/05/01 14:52:57;;;;;;;5.10;4.70;;;16.70;78.70;;;;;;5090456;28;20445;-74
2023/05/01 14:55:26;;;;;;;4.73;4.37;;;16.70;79.00;;;;;;5090698;28;20526;-74
2023/05/01 14:57:53;;;;;;;4.23;3.90;;;16.70;79.60;;;;;;5090704;28;20519;-74
2023/05/01 15:00:20;;;;;;;5.07;4.67;;;16.80;79.10;;;;;;5090302;28;20457;-74
2023/05/01 15:02:47;;;;;;;4.33;3.93;;;16.80;78.70;;;;;;5090068;28;20783;-74
2023/05/01 15:05:14;;;;;;;4.83;4.40;;;16.80;78.30;;;;;;5090049;28;20463;-74
2023/05/01 15:07:42;;;;;;;5.50;4.23;;;16.50;78.20;;;;;;5089687;28;20448;-74
2023/05/01 15:10:09;;;;;;;4.23;3.93;;;16.30;81.00;;;;;;5089592;28;20995;-76
2023/05/01 15:12:36;;;;;;;3.30;3.00;;;15.80;82.80;;;;;;5090990;28;20838;-78
2023/05/01 15:15:03;;;;;;;2.90;2.53;;;15.10;84.10;;;;;;5090375;28;20484;-78
2023/05/01 15:17:30;;;;;;;2.53;2.10;;;14.90;84.80;;;;;;5090843;28;20452;-78
2023/05/01 15:19:56;;;;;;;2.77;1.77;;;14.50;83.70;;;;;;5090446;28;20468;-77
2023/05/01 15:22:23;;;;;;;3.13;2.30;;;14.50;85.00;;;;;;5090557;28;20472;-78
2023/05/01 15:24:51;;;;;;;2.33;1.43;;;14.50;84.30;;;;;;5090654;28;20494;-78
2023/05/01 15:27:18;;;;;;;2.10;1.10;;;14.30;83.10;;;;;;5076535;28;20441;-78
2023/05/01 15:29:44;;;;;;;2.37;1.20;;;14.10;82.20;;;;;;5077010;28;20453;-78
2023/05/01 15:32:11;;;;;;;1.60;1.00;;;14.10;83.40;;;;;;5077297;28;20458;-78
2023/05/01 15:34:38;;;;;;;2.50;1.60;;;13.80;84.20;;;;;;5077391;28;20481;-77
2023/05/01 15:37:06;;;;;;;2.50;1.50;;;13.50;86.20;;;;;;5078223;28;20453;-77
2023/05/01 15:39:33;;;;;;;1.90;1.50;;;13.30;88.10;;;;;;5078869;28;20454;-77
2023/05/01 15:42:01;;;;;;;2.20;1.30;;;13.60;88.00;;;;;;5078636;28;20504;-77
2023/05/01 15:44:28;;;;;;;3.87;2.20;;;13.80;86.30;;;;;;5078603;28;20453;-77
2023/05/01 15:46:54;;;;;;;2.93;2.27;;;13.90;85.80;;;;;;5078073;28;20849;-76
2023/05/01 15:49:21;;;;;;;3.10;1.77;;;14.00;86.20;;;;;;5077949;28;20438;-77
2023/05/01 15:51:47;;;;;;;2.53;1.87;;;14.20;87.00;;;;;;5077193;28;20866;-78
2023/05/01 15:54:14;;;;;;;2.50;1.67;;;14.80;86.70;;;;;;5076637;28;20891;-77
2023/05/01 15:56:41;;;;;;;3.10;2.07;;;15.30;85.90;;;;;;5076460;28;20453;-77
2023/05/01 15:59:09;;;;;;;2.20;1.70;;;15.90;83.80;;;;;;5076965;28;20475;-77
2023/05/01 16:01:36;;;;;;;3.30;2.07;;;16.30;82.80;;;;;;5076696;28;20509;-77
2023/05/01 16:04:04;;;;;;;1.90;1.30;;;16.60;80.90;;;;;;5076653;28;20445;-78
2023/05/01 16:06:31;;;;;;;2.03;1.73;;;16.70;80.60;;;;;;5075427;28;20496;-77
2023/05/01 16:08:58;;;;;;;2.13;1.20;;;16.90;80.10;;;;;;5075277;28;20493;-77
2023/05/01 16:11:25;;;;;;;2.03;1.20;;;17.00;79.60;;;;;;5075153;28;20696;-77
2023/05/01 16:13:53;;;;;;;8.93;1.80;;;17.00;79.30;;;;;;5075074;28;20468;-77
2023/05/01 16:16:24;;;;;;;2.00;1.23;;;17.00;79.30;;;;;;5075587;28;20485;-76
2023/05/01 16:18:54;;;;;;;1.70;0.93;;;16.90;79.30;;;;;;5075302;28;20483;-77
2023/05/01 16:21:21;;;;;;;2.27;0.90;;;16.90;79.20;;;;;;5075036;28;20461;-78
2023/05/01 16:23:48;;;;;;;2.50;1.10;;;16.80;79.30;;;;;;5074938;28;20495;-78
2023/05/01 16:26:21;;;;;;;2.00;1.33;;;16.70;79.70;;;;;;5075050;28;20445;-78
2023/05/01 16:28:48;;;;;;;2.67;1.40;;;16.60;80.00;;;;;;5074881;28;20899;-78
2023/05/01 16:31:15;;;;;;;2.40;1.60;;;16.60;79.70;;;;;;5074818;28;20887;-78
2023/05/01 16:33:43;;;;;;;2.20;1.43;;;16.60;80.10;;;;;;5074962;28;20872;-78
2023/05/01 16:36:10;;;;;;;2.10;1.53;;;16.60;80.40;;;;;;5074913;28;20555;-77
2023/05/01 16:38:38;;;;;;;2.77;2.30;;;16.50;80.50;;;;;;5074174;28;20935;-78
2023/05/01 16:41:05;;;;;;;2.97;2.40;;;16.40;80.90;;;;;;5074646;28;20470;-78
2023/05/01 16:43:31;;;;;;;3.03;2.73;;;16.30;81.10;;;;;;5074658;28;20449;-78
2023/05/01 16:45:58;;;;;;;2.67;2.47;;;16.30;81.20;;;;;;5074570;28;20441;-78
2023/05/01 16:48:25;;;;;;;3.30;2.90;;;16.10;80.40;;;;;;5075072;28;20502;-80
2023/05/01 16:50:53;;;;;;;3.80;2.60;;;16.00;80.50;;;;;;5082660;28;20482;-84
2023/05/01 16:53:21;;;;;;;2.93;2.67;;;16.00;81.00;;;;;;5078695;28;20446;-81